EST,Max TemperatureF,Mean TemperatureF,Min TemperatureF,Max Dew PointF,MeanDew PointF,Min DewpointF,Max Humidity, Mean Humidity, Min Humidity, Max Sea Level PressureIn, Mean Sea Level PressureIn, Min Sea Level PressureIn, Max VisibilityMiles, Mean VisibilityMiles, Min VisibilityMiles, Max Wind SpeedMPH, Mean Wind SpeedMPH, Max Gust SpeedMPH,PrecipitationIn, CloudCover, Events, WindDirDegrees
2012-11-1,71,52,33,44,37,29,100,86,22,30.05,29.99,29.94,10,5,1,13,2,21,0.00,0,,144
2012-11-2,79,57,35,52,44,34,97,72,35,30.07,30.02,29.96,10,10,10,13,3,21,0.00,0,,269
2012-11-3,85,64,44,60,48,44,100,91,38,30.13,30.07,30.01,10,5,1,7,1,,0.00,0,,145
2012-11-4,77,62,48,59,52,48,100,84,44,30.07,30.03,29.97,10,9,4,16,4,20,0.00,1,,192
2012-11-5,71,54,38,53,44,38,97,70,33,30.10,30.00,29.91,10,9,2,9,4,,0.04,3,Rain,1
2012-11-6,60,55,49,52,49,45,100,85,59,29.99,29.94,29.89,10,10,6,14,6,,0.11,8,Rain,324
2012-11-7,59,49,39,48,44,34,100,80,41,30.09,29.97,29.91,10,10,7,18,4,24,0.00,6,,296
2012-11-8,65,49,33,42,36,32,100,84,34,30.22,30.16,30.09,10,7,0,9,3,,0.00,0,Fog,298
2012-11-9,70,51,32,53,36,32,100,92,28,30.33,30.26,30.21,10,3,0,5,1,,0.00,1,Fog,123
2012-11-10,74,53,32,42,34,32,100,93,26,30.37,30.31,30.26,10,3,0,7,0,,0.00,0,Fog,166
2012-11-11,77,54,32,53,38,32,100,92,41,30.38,30.33,30.27,10,4,0,13,1,17,0.00,1,Fog,145
2012-11-12,79,63,47,64,52,46,100,97,47,30.29,30.25,30.16,10,4,0,17,1,21,0.46,2,Fog-Rain,297
2012-11-13,63,51,38,53,38,30,96,67,30,30.34,30.27,30.22,10,10,7,16,8,,0.00,3,,335
2012-11-14,55,46,36,45,42,33,89,80,66,30.32,30.28,30.25,10,10,6,9,4,17,0.00,7,Rain,40
2012-11-15,52,48,45,45,43,42,90,82,70,30.30,30.27,30.24,10,10,8,8,4,,0.00,8,,37
2012-11-16,63,49,35,45,40,36,100,89,45,30.31,30.29,30.22,10,6,0,9,3,,0.00,2,Fog,52
2012-11-17,62,46,31,47,33,30,100,94,34,30.40,30.33,30.30,10,2,0,16,1,,0.00,0,Fog,332
2012-11-18,68,51,34,46,40,30,100,83,43,30.37,30.31,30.26,10,6,0,12,1,,0.00,0,Fog,18
2012-11-19,67,51,35,54,40,36,100,95,55,30.32,30.28,30.18,10,2,0,8,0,,0.00,1,Fog-Snow,358
2012-11-20,67,56,44,54,49,45,100,88,53,30.20,30.14,30.07,10,7,1,5,1,,0.00,4,,98
2012-11-21,74,56,39,48,43,39,100,95,36,30.17,30.12,30.09,10,3,0,9,1,,0.00,1,Fog,120
2012-11-22,71,52,33,56,39,34,100,95,36,30.27,30.19,30.17,10,2,0,6,0,,0.00,0,Fog,141
2012-11-23,73,54,35,53,39,34,100,88,36,30.23,30.18,30.07,10,6,0,17,1,25,0.00,1,Fog,296
2012-11-24,59,46,32,42,28,19,87,59,21,30.22,30.16,30.11,10,10,7,13,8,16,0.00,0,,315
2012-11-25,62,43,24,29,23,17,93,62,18,30.25,30.17,30.12,10,10,10,5,0,,0.00,0,,260
2012-11-26,70,48,25,36,28,20,94,60,15,30.26,30.19,30.15,10,10,10,5,1,,0.00,2,,154
2012-11-27,54,50,45,54,50,37,100,95,71,30.22,30.18,30.12,10,6,0,17,2,17,0.64,7,Fog-Rain,17
2012-11-28,60,46,33,52,42,34,100,86,50,30.40,30.33,30.22,10,8,0,14,5,,0.00,3,Fog,343
2012-11-29,63,48,32,50,38,32,100,95,48,30.44,30.39,30.32,10,2,0,6,1,,0.00,2,Fog,302
2012-11-30,70,54,37,52,44,37,100,95,46,30.36,30.31,30.25,10,3,0,5,1,,0.00,3,Fog,288